Ola, Arkansas
Current Conditions -  °F | °C
As of 11:53 PM on Sunday 25 Jan 2015 (Local Time) from KRUE Reporting Station
Overcast Overcast  
Wind Chill: 39°   Ceiling: 3400
Heat Index: 45°   Visibility: 10mi
Dew Point: 32°   Wind: 14mph
Humidity: 60%   Direction: 310°NW
Pressure: 30.08"   Gusts: 21mph
Location:  35.03°N, 93.22°W
Report Text: KRUE 260553Z AUTO 31012G18KT 10SM OVC034 07/00 A3008 RMK AO2 SLP181 T00720000 10094 20072 401390000 53021
Loading
Personal Weather Stations






























Interactive Weather Map New forecast layout! Learn more

10-Day Weather Forecast

Advertisements
Track Severe Weather on mobile